To NAV CANADA Home Page Login to a new session Search on AWWS site Feedback and Comments Disclaimer Vers la page française équivalente Tips FAQ What's new on the site To the Forecasts and Observations / NOTAM section To "File a Flight Plan" website Publications and other links Update of the User's profile FIC Telephone Numbers My Weather Data Folder Route Weather Data Regional Weather Data Local Weather Data To the Forecasts and Observations / NOTAM section
Request Generated 04/24/2014 at 21:16:09 UTC . Weather information available at that time is displayed.

METAR/TAF

PAULATUK/PAULATUK (NORA ALIQATCHIALUK RUBEN)/NT    

METAR CYPC 242100Z 16026G35KT 15SM BKN240 BKN270 M01/M08 A3021 RMK CI1CI1 SLP231=
METAR CYPC 242000Z 16027G35KT 15SM BKN240 M02/M07 A3022 RMK CI2 SLP233=
METAR CYPC 241900Z 14014G23KT 15SM BKN240 M02/M07 A3024 RMK CI2 SLP241=

TAF CYPC 241838Z 2419/2423 12015G25KT P6SM SCT240
RMK NXT FCST WILL BE ISSUED AT 251445Z=
Your time UTC time
Weather data provided by Environment Canada and NAV CANADA